createdAt,value
2019-01-12T00:00:41.473Z,90.61
2019-01-12T00:03:10.541Z,90.71
2019-01-12T00:05:39.597Z,90.79
2019-01-12T00:08:08.625Z,90.82
2019-01-12T00:10:38.018Z,90.92
2019-01-12T00:13:07.163Z,90.96
2019-01-12T00:15:36.567Z,91.46
2019-01-12T00:18:05.561Z,91.45
2019-01-12T00:20:35.001Z,90.94
2019-01-12T00:23:04.373Z,90.49
2019-01-12T00:25:33.378Z,90.39
2019-01-12T00:28:02.819Z,90.31
2019-01-12T00:30:32.169Z,90.63
2019-01-12T00:33:01.755Z,90.85
2019-01-12T00:35:30.807Z,90.91
2019-01-12T00:37:59.815Z,91.24
2019-01-12T00:40:28.873Z,91.13
2019-01-12T00:42:57.954Z,91.40
2019-01-12T00:45:27.339Z,91.49
2019-01-12T00:47:56.424Z,91.28
2019-01-12T00:50:25.788Z,91.06
2019-01-12T00:52:54.853Z,90.98
2019-01-12T00:55:24.247Z,90.50
2019-01-12T00:57:53.668Z,90.76
2019-01-12T01:00:23.425Z,91.17
2019-01-12T01:02:52.483Z,91.42
2019-01-12T01:05:21.522Z,91.43
2019-01-12T01:07:50.546Z,90.51
2019-01-12T01:10:21.442Z,90.29
2019-01-12T01:12:50.474Z,89.57
2019-01-12T01:15:20.019Z,89.54
2019-01-12T01:17:49.077Z,88.41
2019-01-12T01:20:18.200Z,87.88
2019-01-12T01:22:47.263Z,88.28
2019-01-12T01:25:16.266Z,87.95
2019-01-12T01:27:45.281Z,87.96
2019-01-12T01:30:17.301Z,87.83
2019-01-12T01:32:46.608Z,88.15
2019-01-12T01:35:15.978Z,88.55
2019-01-12T01:37:45.356Z,88.83
2019-01-12T01:40:16.547Z,88.53
2019-01-12T01:42:45.594Z,88.57
2019-01-12T01:45:15.649Z,88.48
2019-01-12T01:47:44.637Z,88.29
2019-01-12T01:50:14.714Z,88.13
2019-01-12T01:52:43.747Z,87.52
2019-01-12T01:55:13.347Z,87.35
2019-01-12T01:57:42.382Z,87.46
2019-01-12T02:00:14.487Z,87.33
2019-01-12T02:02:43.556Z,87.77
2019-01-12T02:05:12.571Z,88.03
2019-01-12T02:07:41.629Z,87.99
2019-01-12T02:10:19.284Z,88.38
2019-01-12T02:12:48.667Z,87.82
2019-01-12T02:15:18.377Z,87.76
2019-01-12T02:17:48.006Z,87.85
2019-01-12T02:20:17.006Z,87.46
2019-01-12T02:22:46.332Z,87.89
2019-01-12T02:25:15.338Z,88.02
2019-01-12T02:27:44.414Z,88.16
2019-01-12T02:30:23.216Z,88.05
2019-01-12T02:32:52.614Z,87.83
2019-01-12T02:35:21.633Z,88.18
2019-01-12T02:37:50.997Z,88.18
2019-01-12T02:40:20.014Z,88.64
2019-01-12T02:42:49.074Z,88.74
2019-01-12T02:45:18.738Z,88.53
2019-01-12T02:47:48.051Z,88.65
2019-01-12T02:50:17.376Z,88.28
2019-01-12T02:52:46.402Z,88.17
2019-01-12T02:55:15.456Z,88.12
2019-01-12T02:57:44.477Z,87.90
2019-01-12T03:00:16.049Z,87.60
2019-01-12T03:02:45.364Z,87.36
2019-01-12T03:05:15.162Z,87.87
2019-01-12T03:07:44.337Z,87.64
2019-01-12T03:10:15.106Z,87.90
2019-01-12T03:12:44.428Z,87.34
2019-01-12T03:15:15.778Z,86.87
2019-01-12T03:17:45.395Z,86.66
2019-01-12T03:20:16.235Z,86.85
2019-01-12T03:22:45.652Z,87.16
2019-01-12T03:25:18.343Z,87.35
2019-01-12T03:27:45.479Z,86.45
2019-01-12T03:30:19.061Z,86.62
2019-01-12T03:32:48.124Z,86.28
2019-01-12T03:35:17.386Z,86.83
2019-01-12T03:37:47.193Z,86.78
2019-01-12T03:40:20.898Z,86.55
2019-01-12T03:42:50.045Z,85.92
2019-01-12T03:45:20.295Z,86.57
2019-01-12T03:47:49.860Z,86.57
2019-01-12T03:50:19.120Z,86.34
2019-01-12T03:52:48.358Z,86.21
2019-01-12T03:55:25.190Z,86.04
2019-01-12T03:57:48.947Z,85.74
2019-01-12T04:00:21.321Z,85.72
2019-01-12T04:02:50.379Z,85.12
2019-01-12T04:05:19.911Z,84.83
2019-01-12T04:07:49.268Z,84.83
2019-01-12T04:10:18.302Z,84.39
2019-01-12T04:12:47.769Z,84.31
2019-01-12T04:15:16.811Z,84.87
2019-01-12T04:17:45.881Z,84.52
2019-01-12T04:20:16.196Z,84.10
2019-01-12T04:22:45.250Z,84.77
2019-01-12T04:25:14.526Z,85.17
2019-01-12T04:27:43.570Z,84.80
2019-01-12T04:30:17.402Z,84.53
2019-01-12T04:32:47.239Z,84.16
2019-01-12T04:35:16.845Z,84.87
2019-01-12T04:37:46.308Z,84.80
2019-01-12T04:40:20.062Z,84.27
2019-01-12T04:42:49.140Z,83.86
2019-01-12T04:45:18.163Z,84.37
2019-01-12T04:47:47.472Z,84.37
2019-01-12T04:50:17.924Z,84.31
2019-01-12T04:52:47.325Z,83.99
2019-01-12T04:55:17.036Z,84.30
2019-01-12T04:57:46.089Z,84.01
2019-01-12T05:00:19.262Z,83.23
2019-01-12T05:02:48.589Z,83.82
2019-01-12T05:05:17.776Z,83.58
2019-01-12T05:07:47.168Z,84.30
2019-01-12T05:10:16.356Z,84.25
2019-01-12T05:12:45.678Z,83.85
2019-01-12T05:15:15.932Z,83.28
2019-01-12T05:17:44.962Z,83.06
2019-01-12T05:20:19.201Z,83.54
2019-01-12T05:22:48.560Z,83.31
2019-01-12T05:25:18.848Z,83.76
2019-01-12T05:27:47.890Z,83.04
2019-01-12T05:30:19.241Z,83.47
2019-01-12T05:32:48.256Z,83.93
2019-01-12T05:35:17.288Z,83.22
2019-01-12T05:37:46.662Z,83.34
2019-01-12T05:40:15.723Z,82.82
2019-01-12T05:42:44.804Z,83.11
2019-01-12T05:45:14.374Z,83.09
2019-01-12T05:47:43.415Z,82.91
2019-01-12T05:50:13.656Z,82.98
2019-01-12T05:52:42.992Z,82.90
2019-01-12T05:55:12.026Z,82.22
2019-01-12T05:57:41.438Z,82.81
2019-01-12T06:00:14.586Z,82.67
2019-01-12T06:02:43.598Z,81.87
2019-01-12T06:05:12.618Z,82.63
2019-01-12T06:07:41.669Z,82.58
2019-01-12T06:10:10.907Z,82.61
2019-01-12T06:12:39.940Z,82.66
2019-01-12T06:15:09.372Z,83.10
2019-01-12T06:17:38.423Z,83.28
2019-01-12T06:20:08.447Z,82.95
2019-01-12T06:22:37.456Z,82.44
2019-01-12T06:25:06.617Z,82.80
2019-01-12T06:27:36.022Z,82.94
2019-01-12T06:30:09.192Z,82.65
2019-01-12T06:32:38.247Z,82.24
2019-01-12T06:35:07.402Z,82.52
2019-01-12T06:37:36.432Z,83.21
2019-01-12T06:40:07.878Z,83.25
2019-01-12T06:42:36.937Z,82.72
2019-01-12T06:45:07.742Z,82.73
2019-01-12T06:47:36.778Z,83.24
2019-01-12T06:50:06.931Z,83.19
2019-01-12T06:52:36.350Z,83.02
2019-01-12T06:55:06.508Z,83.51
2019-01-12T06:57:35.532Z,83.22
2019-01-12T07:00:07.993Z,82.87
2019-01-12T07:02:37.429Z,82.96
2019-01-12T07:05:07.239Z,82.79
2019-01-12T07:07:36.256Z,83.33
2019-01-12T07:10:06.771Z,83.32
2019-01-12T07:12:35.790Z,83.26
2019-01-12T07:15:05.785Z,83.79
2019-01-12T07:17:34.818Z,83.95
2019-01-12T07:20:04.664Z,83.54
2019-01-12T07:22:33.671Z,83.23
2019-01-12T07:25:02.819Z,83.49
2019-01-12T07:27:31.932Z,83.43
2019-01-12T07:30:01.114Z,83.76
2019-01-12T07:32:30.141Z,83.38
2019-01-12T07:34:59.188Z,83.34
2019-01-12T07:37:28.219Z,83.43
2019-01-12T07:39:57.272Z,83.89
2019-01-12T07:42:26.802Z,83.62
2019-01-12T07:44:55.895Z,83.50
2019-01-12T07:47:25.262Z,82.99
2019-01-12T07:49:54.320Z,82.91
2019-01-12T07:52:23.633Z,83.21
2019-01-12T07:54:52.979Z,83.11
2019-01-12T07:57:22.008Z,82.71
2019-01-12T07:59:51.071Z,83.10
2019-01-12T08:02:20.120Z,82.49
2019-01-12T08:04:49.217Z,82.79
2019-01-12T08:07:18.258Z,82.79
2019-01-12T08:09:47.487Z,82.58
2019-01-12T08:12:16.510Z,82.06
2019-01-12T08:14:45.570Z,81.93
2019-01-12T08:17:14.575Z,81.55
2019-01-12T08:19:44.013Z,82.27
2019-01-12T08:22:13.052Z,81.06
2019-01-12T08:24:42.217Z,81.23
2019-01-12T08:27:11.549Z,80.96
2019-01-12T08:29:40.988Z,80.59
2019-01-12T08:32:10.412Z,80.89
2019-01-12T08:34:39.466Z,80.29
2019-01-12T08:37:08.537Z,80.36
2019-01-12T08:39:37.930Z,80.30
2019-01-12T08:42:07.014Z,80.12
2019-01-12T08:44:36.408Z,80.15
2019-01-12T08:47:05.871Z,80.42
2019-01-12T08:49:34.916Z,80.46
2019-01-12T08:52:03.951Z,80.16
2019-01-12T08:54:33.311Z,80.20
2019-01-12T08:57:02.338Z,79.85
2019-01-12T08:59:31.427Z,80.13
2019-01-12T09:02:00.579Z,80.09
2019-01-12T09:04:29.665Z,79.53
2019-01-12T09:06:58.733Z,79.53
2019-01-12T09:09:27.792Z,79.52
2019-01-12T09:11:56.860Z,79.62
2019-01-12T09:14:25.966Z,80.28
2019-01-12T09:16:56.028Z,79.96
2019-01-12T09:19:25.101Z,79.97
2019-01-12T09:21:54.195Z,80.00
2019-01-12T09:24:23.354Z,79.93
2019-01-12T09:26:52.363Z,79.86
2019-01-12T09:29:21.762Z,80.03
2019-01-12T09:31:51.171Z,80.24
2019-01-12T09:34:20.236Z,80.76
2019-01-12T09:36:49.691Z,80.96
2019-01-12T09:39:18.873Z,81.04
2019-01-12T09:41:47.901Z,80.52
2019-01-12T09:44:16.955Z,80.40
2019-01-12T09:46:46.463Z,80.54
2019-01-12T09:49:15.576Z,80.97
2019-01-12T09:51:44.648Z,80.50
2019-01-12T09:54:14.092Z,80.93
2019-01-12T09:56:43.446Z,81.38
2019-01-12T09:59:12.921Z,81.51
2019-01-12T10:01:42.059Z,81.12
2019-01-12T10:04:11.407Z,81.58
2019-01-12T10:06:40.772Z,82.09
2019-01-12T10:09:09.789Z,82.10
2019-01-12T10:11:38.859Z,81.85
2019-01-12T10:14:07.960Z,81.12
2019-01-12T10:16:37.388Z,81.36
2019-01-12T10:19:06.755Z,81.79
2019-01-12T10:21:35.952Z,81.71
2019-01-12T10:24:05.043Z,81.26
2019-01-12T10:26:34.509Z,81.73
2019-01-12T10:29:03.568Z,81.52
2019-01-12T10:31:33.373Z,81.73
2019-01-12T10:34:03.203Z,82.30
2019-01-12T10:36:32.615Z,82.47
2019-01-12T10:39:01.641Z,82.77
2019-01-12T10:41:31.127Z,82.69
2019-01-12T10:44:00.233Z,82.43
2019-01-12T10:46:29.283Z,82.19
2019-01-12T10:48:58.443Z,82.61
2019-01-12T10:51:27.550Z,82.34
2019-01-12T10:53:56.645Z,82.51
2019-01-12T10:56:25.764Z,82.85
2019-01-12T10:58:55.879Z,83.43
2019-01-12T11:01:25.085Z,83.49
2019-01-12T11:03:54.136Z,83.44
2019-01-12T11:06:23.317Z,83.47
2019-01-12T11:08:52.668Z,83.86
2019-01-12T11:11:22.062Z,83.74
2019-01-12T11:13:51.205Z,84.00
2019-01-12T11:16:20.410Z,84.03
2019-01-12T11:18:49.804Z,84.15
2019-01-12T11:21:18.963Z,83.98
2019-01-12T11:23:48.067Z,83.67
2019-01-12T11:26:17.462Z,84.46
2019-01-12T11:28:47.025Z,83.98
2019-01-12T11:31:19.798Z,84.72
2019-01-12T11:33:47.299Z,84.76
2019-01-12T11:36:16.456Z,84.60
2019-01-12T11:38:45.562Z,84.51
2019-01-12T11:41:14.744Z,84.93
2019-01-12T11:43:44.143Z,84.82
2019-01-12T11:46:13.471Z,84.56
2019-01-12T11:48:43.650Z,84.78
2019-01-12T11:51:14.281Z,84.83
2019-01-12T11:53:43.374Z,85.04
2019-01-12T11:56:12.833Z,84.81
2019-01-12T11:58:41.916Z,85.21
2019-01-12T12:01:10.989Z,84.45
2019-01-12T12:03:40.369Z,85.07
2019-01-12T12:06:10.123Z,85.44
2019-01-12T12:08:39.947Z,85.62
2019-01-12T12:11:09.334Z,86.15
2019-01-12T12:13:38.412Z,86.37
2019-01-12T12:16:07.615Z,86.98
2019-01-12T12:18:37.010Z,87.19
2019-01-12T12:21:06.457Z,86.89
2019-01-12T12:23:35.623Z,87.54
2019-01-12T12:26:04.827Z,88.41
2019-01-12T12:28:34.170Z,89.02
2019-01-12T12:31:03.329Z,89.07
2019-01-12T12:33:32.477Z,89.27
2019-01-12T12:36:01.875Z,89.10
2019-01-12T12:38:30.987Z,89.19
2019-01-12T12:41:00.391Z,89.02
2019-01-12T12:43:29.517Z,89.14
2019-01-12T12:45:58.734Z,88.93
2019-01-12T12:48:27.996Z,88.22
2019-01-12T12:50:57.428Z,88.53
2019-01-12T12:53:26.438Z,88.27
2019-01-12T12:55:55.973Z,88.26
2019-01-12T12:58:25.378Z,88.16
2019-01-12T13:00:54.861Z,87.85
2019-01-12T13:03:24.053Z,87.44
2019-01-12T13:05:53.372Z,87.75
2019-01-12T13:08:22.503Z,87.08
2019-01-12T13:10:51.592Z,87.15
2019-01-12T13:13:21.409Z,86.97
2019-01-12T13:15:50.487Z,86.92
2019-01-12T13:18:20.288Z,86.55
2019-01-12T13:20:49.446Z,86.53
2019-01-12T13:23:20.116Z,86.00
2019-01-12T13:25:49.869Z,86.08
2019-01-12T13:28:19.289Z,85.64
2019-01-12T13:30:48.876Z,85.85
2019-01-12T13:33:17.946Z,85.96
2019-01-12T13:35:48.675Z,85.78
2019-01-12T13:38:18.112Z,85.60
2019-01-12T13:40:47.223Z,85.52
2019-01-12T13:43:16.575Z,85.19
2019-01-12T13:45:46.050Z,85.49
2019-01-12T13:48:15.147Z,85.02
2019-01-12T13:50:44.505Z,84.79
2019-01-12T13:53:13.889Z,85.05
2019-01-12T13:55:42.927Z,84.49
2019-01-12T13:58:11.961Z,84.71
2019-01-12T14:00:41.658Z,84.46
2019-01-12T14:03:10.701Z,84.32
2019-01-12T14:05:39.789Z,84.04
2019-01-12T14:08:08.969Z,84.03
2019-01-12T14:10:38.450Z,84.19
2019-01-12T14:13:08.018Z,84.56
2019-01-12T14:15:37.226Z,84.52
2019-01-12T14:18:06.516Z,85.25
2019-01-12T14:20:37.763Z,84.89
2019-01-12T14:23:07.378Z,85.47
2019-01-12T14:25:36.908Z,86.12
2019-01-12T14:28:06.643Z,86.19
2019-01-12T14:30:35.719Z,85.44
2019-01-12T14:33:05.605Z,85.67
2019-01-12T14:35:35.023Z,85.74
2019-01-12T14:38:04.305Z,85.81
2019-01-12T14:40:33.668Z,86.03
2019-01-12T14:43:02.747Z,87.33
2019-01-12T14:45:33.728Z,86.97
2019-01-12T14:48:02.999Z,87.64
2019-01-12T14:50:32.481Z,87.49
2019-01-12T14:53:01.872Z,86.96
2019-01-12T14:55:31.537Z,87.54
2019-01-12T14:58:02.594Z,87.68
2019-01-12T15:00:31.349Z,87.79
2019-01-12T15:03:00.742Z,87.59
2019-01-12T15:05:33.992Z,87.16
2019-01-12T15:08:03.034Z,87.25
2019-01-12T15:10:33.430Z,87.13
2019-01-12T15:13:02.461Z,87.36
2019-01-12T15:15:31.892Z,87.30
2019-01-12T15:18:00.993Z,87.69
2019-01-12T15:20:30.879Z,87.79
2019-01-12T15:23:00.755Z,87.95
2019-01-12T15:25:30.907Z,88.01
2019-01-12T15:28:00.990Z,88.28
2019-01-12T15:30:31.830Z,87.31
2019-01-12T15:33:11.279Z,87.55
2019-01-12T15:35:42.187Z,88.02
2019-01-12T15:38:11.285Z,88.52
2019-01-12T15:40:41.994Z,88.53
2019-01-12T15:43:11.387Z,88.87
2019-01-12T15:45:43.873Z,89.02
2019-01-12T15:48:12.935Z,88.31
2019-01-12T15:50:41.987Z,88.10
2019-01-12T15:53:11.019Z,88.39
2019-01-12T15:55:40.541Z,87.97
2019-01-12T15:58:16.160Z,87.96
2019-01-12T16:00:43.525Z,88.00
2019-01-12T16:03:12.605Z,87.94
2019-01-12T16:05:42.002Z,88.00
2019-01-12T16:08:11.086Z,87.64
2019-01-12T16:10:40.518Z,87.67
2019-01-12T16:13:09.631Z,87.91
2019-01-12T16:15:41.025Z,87.62
2019-01-12T16:18:10.139Z,87.89
2019-01-12T16:20:43.503Z,87.89
2019-01-12T16:23:13.832Z,87.64
2019-01-12T16:25:43.985Z,87.36
2019-01-12T16:28:13.478Z,87.74
2019-01-12T16:30:42.959Z,87.63
2019-01-12T16:33:12.360Z,87.78
2019-01-12T16:35:45.265Z,87.27
2019-01-12T16:38:14.574Z,87.94
2019-01-12T16:40:43.907Z,87.93
2019-01-12T16:43:13.045Z,87.76
2019-01-12T16:45:42.084Z,88.33
2019-01-12T16:48:11.141Z,88.02
2019-01-12T16:50:41.220Z,87.93
2019-01-12T16:53:10.595Z,88.20
2019-01-12T16:55:39.988Z,88.19
2019-01-12T16:58:09.119Z,88.31
2019-01-12T17:00:38.547Z,87.90
2019-01-12T17:03:07.821Z,88.08
2019-01-12T17:05:36.973Z,87.87
2019-01-12T17:08:06.366Z,87.64
2019-01-12T17:10:35.926Z,87.69
2019-01-12T17:13:05.609Z,87.67
2019-01-12T17:15:35.516Z,87.54
2019-01-12T17:18:05.280Z,87.63
2019-01-12T17:20:34.276Z,87.71
2019-01-12T17:23:04.942Z,87.95
2019-01-12T17:25:34.457Z,88.34
2019-01-12T17:28:03.533Z,88.21
2019-01-12T17:30:32.579Z,88.39
2019-01-12T17:33:01.630Z,88.71
2019-01-12T17:35:30.689Z,88.77
2019-01-12T17:38:00.210Z,88.15
2019-01-12T17:40:29.370Z,88.31
2019-01-12T17:42:58.452Z,88.45
2019-01-12T17:45:27.993Z,88.19
2019-01-12T17:47:57.083Z,88.11
2019-01-12T17:50:27.668Z,87.98
2019-01-12T17:52:56.991Z,88.54
2019-01-12T17:55:27.493Z,88.75
2019-01-12T17:57:57.228Z,88.52
2019-01-12T18:00:33.478Z,88.13
2019-01-12T18:03:02.637Z,88.06
2019-01-12T18:05:32.208Z,87.85
2019-01-12T18:08:01.540Z,87.85
2019-01-12T18:10:30.616Z,87.87
2019-01-12T18:12:59.960Z,87.93
2019-01-12T18:15:29.036Z,88.03
2019-01-12T18:17:58.098Z,88.04
2019-01-12T18:20:27.136Z,87.69
2019-01-12T18:22:56.206Z,87.71
2019-01-12T18:25:25.287Z,87.83
2019-01-12T18:27:54.792Z,87.43
2019-01-12T18:30:24.158Z,86.96
2019-01-12T18:32:53.525Z,87.13
2019-01-12T18:35:22.832Z,87.57
2019-01-12T18:37:51.892Z,87.69
2019-01-12T18:40:20.932Z,87.95
2019-01-12T18:42:50.060Z,87.83
2019-01-12T18:45:19.470Z,87.83
2019-01-12T18:47:48.518Z,88.18
2019-01-12T18:50:19.833Z,88.74
2019-01-12T18:52:48.954Z,88.90
2019-01-12T18:55:18.628Z,88.57
2019-01-12T18:57:47.957Z,88.88
2019-01-12T19:00:22.068Z,88.93
2019-01-12T19:02:51.528Z,88.90
2019-01-12T19:05:20.633Z,88.60
2019-01-12T19:07:49.950Z,88.91
2019-01-12T19:10:20.224Z,88.41
2019-01-12T19:12:49.755Z,87.14
2019-01-12T19:15:29.992Z,87.13
2019-01-12T19:17:59.739Z,87.45
2019-01-12T19:20:28.866Z,86.96
2019-01-12T19:22:58.178Z,87.06
2019-01-12T19:25:27.215Z,86.24
2019-01-12T19:27:56.283Z,86.57
2019-01-12T19:30:26.363Z,85.77
2019-01-12T19:32:55.502Z,86.03
2019-01-12T19:35:24.535Z,85.55
2019-01-12T19:37:53.652Z,85.50
2019-01-12T19:40:24.811Z,85.53
2019-01-12T19:42:53.992Z,84.97
2019-01-12T19:45:23.386Z,84.88
2019-01-12T19:47:52.526Z,84.71
2019-01-12T19:50:25.919Z,84.86
2019-01-12T19:52:55.191Z,84.70
2019-01-12T19:55:24.237Z,85.22
2019-01-12T19:57:53.257Z,84.65
2019-01-12T20:00:24.986Z,84.74
2019-01-12T20:02:54.332Z,84.17
2019-01-12T20:05:23.660Z,83.67
2019-01-12T20:07:52.735Z,84.19
2019-01-12T20:10:22.017Z,83.99
2019-01-12T20:12:51.247Z,83.99
2019-01-12T20:15:22.641Z,84.53
2019-01-12T20:17:51.893Z,84.74
2019-01-12T20:20:21.276Z,84.05
2019-01-12T20:22:50.942Z,83.49
2019-01-12T20:25:31.574Z,83.59
2019-01-12T20:28:03.553Z,83.16
2019-01-12T20:30:59.380Z,83.55
2019-01-12T20:33:53.113Z,83.70
2019-01-12T20:36:52.832Z,84.00
2019-01-12T20:39:48.846Z,83.44
2019-01-12T20:42:53.637Z,83.10
2019-01-12T20:45:53.590Z,83.29
2019-01-12T20:48:48.138Z,83.20
2019-01-12T20:51:55.491Z,83.66
2019-01-12T20:55:14.728Z,83.79
2019-01-12T20:58:13.876Z,83.46
2019-01-12T21:01:07.633Z,83.57
2019-01-12T21:04:19.787Z,83.48
2019-01-12T21:07:33.602Z,83.32
2019-01-12T21:10:40.301Z,83.44
2019-01-12T21:13:43.915Z,83.36
2019-01-12T21:16:17.400Z,83.60
2019-01-12T21:18:46.556Z,83.39
2019-01-12T21:21:16.083Z,83.13
2019-01-12T21:23:45.143Z,82.94
2019-01-12T21:26:14.223Z,82.79
2019-01-12T21:28:43.716Z,83.16
2019-01-12T21:31:13.246Z,83.42
2019-01-12T21:33:42.325Z,82.70
2019-01-12T21:36:11.452Z,83.24
2019-01-12T21:38:40.574Z,83.46
2019-01-12T21:41:09.729Z,82.81
2019-01-12T21:43:39.882Z,83.27
2019-01-12T21:46:09.264Z,83.37
2019-01-12T21:48:38.436Z,83.49
2019-01-12T21:51:08.166Z,83.17
2019-01-12T21:53:37.190Z,83.11
2019-01-12T21:56:06.918Z,82.68
2019-01-12T21:58:36.310Z,82.91
2019-01-12T22:01:05.516Z,82.74
2019-01-12T22:03:34.895Z,82.85
2019-01-12T22:06:03.929Z,82.40
2019-01-12T22:08:33.364Z,82.44
2019-01-12T22:11:02.428Z,82.26
2019-01-12T22:13:31.544Z,82.82
2019-01-12T22:16:01.054Z,82.78
2019-01-12T22:18:30.476Z,82.38
2019-01-12T22:20:59.580Z,82.68
2019-01-12T22:23:29.866Z,82.37
2019-01-12T22:25:58.978Z,82.93
2019-01-12T22:28:28.034Z,82.91
2019-01-12T22:30:57.391Z,82.79
2019-01-12T22:33:26.822Z,82.46
2019-01-12T22:35:55.994Z,82.18
2019-01-12T22:38:25.132Z,83.04
2019-01-12T22:40:54.271Z,83.32
2019-01-12T22:43:24.811Z,83.95
2019-01-12T22:45:54.353Z,84.21
2019-01-12T22:48:23.393Z,84.64
2019-01-12T22:50:52.842Z,85.21
2019-01-12T22:53:21.864Z,85.19
2019-01-12T22:55:51.341Z,85.78
2019-01-12T22:58:20.566Z,86.03
2019-01-12T23:01:26.903Z,86.26
2019-01-12T23:03:59.554Z,86.30
2019-01-12T23:06:29.330Z,86.93
2019-01-12T23:08:58.956Z,86.95
2019-01-12T23:11:28.282Z,87.13
2019-01-12T23:13:58.340Z,87.26
2019-01-12T23:16:28.012Z,87.25
2019-01-12T23:18:57.395Z,87.80
2019-01-12T23:21:26.468Z,88.02
2019-01-12T23:23:55.476Z,88.06
2019-01-12T23:26:24.554Z,88.17
2019-01-12T23:28:53.631Z,88.07
2019-01-12T23:31:22.648Z,88.53
2019-01-12T23:33:51.750Z,88.90
2019-01-12T23:36:20.798Z,89.25
2019-01-12T23:38:49.850Z,89.89
2019-01-12T23:41:18.856Z,89.82
2019-01-12T23:43:47.893Z,90.26
2019-01-12T23:46:16.986Z,90.61
2019-01-12T23:48:46.001Z,90.64
2019-01-12T23:51:15.178Z,90.89
2019-01-12T23:53:44.252Z,90.90
2019-01-12T23:56:13.330Z,90.93
2019-01-12T23:58:42.389Z,90.48
